PROFILE

 METAR AND TAF INFORMATION
ADDS - METARS form results

(1733 UTC 25 November 2022)
http://aviationweather.gov/metar/data/
 
LFBE 251730Z AUTO 24003KT CAVOK 07/05 Q1027 BECMG 4000 BR
LFBE 251700Z AUTO 23003KT CAVOK 09/07 Q1026 NOSIG
TAF AMD LFBE 251524Z 2515/2612 28008KT CAVOK BECMG 2519/2521 4000 BR BECMG 2521/2523 0500 FG VV/// BECMG 2609/2611 2000 BR BKN002 

 AIRPORT MAP

 RUNWAY INFORMATION
Runway 10 Runway length 7234 ft Runway width 148 ft
Runway elevation 170 ft Runway displaced threshold 687 ft Runway heading 94
Runway 28 Runway length 7234 ft Runway width 148 ft
Runway elevation 161 ft Runway displaced threshold 804 ft Runway heading 274

 AIRPORT FREQUENCIES
Type APP Name AQUITAINE Frequency 119.275 MHZ
Type TWR Name BERGERAC T Frequency 119.8 MHZ

 AIRPORT NEAR NAVIGATION AIDS
Type NDB Name Bergerac Frequency 374 KHZ